createdAt,value
2018-05-15T00:01:04.783Z,0
2018-05-15T00:02:13.645Z,0
2018-05-15T00:03:22.786Z,0
2018-05-15T00:04:31.647Z,0
2018-05-15T00:05:40.508Z,0
2018-05-15T00:06:49.373Z,0
2018-05-15T00:07:58.242Z,0
2018-05-15T00:09:07.102Z,0
2018-05-15T00:10:15.967Z,0
2018-05-15T00:11:25.312Z,0
2018-05-15T00:12:34.176Z,0
2018-05-15T00:13:43.038Z,0
2018-05-15T00:14:51.902Z,0
2018-05-15T00:16:00.766Z,0
2018-05-15T00:17:09.624Z,0
2018-05-15T00:18:18.488Z,0
2018-05-15T00:19:27.351Z,0
2018-05-15T00:20:36.215Z,0
2018-05-15T00:21:45.075Z,0
2018-05-15T00:22:53.937Z,0
2018-05-15T00:24:02.797Z,0
2018-05-15T00:25:11.659Z,0
2018-05-15T00:26:21.078Z,0
2018-05-15T00:27:29.940Z,0
2018-05-15T00:28:39.152Z,0
2018-05-15T00:29:48.020Z,0
2018-05-15T00:30:57.158Z,0
2018-05-15T00:32:06.299Z,0
2018-05-15T00:33:15.159Z,0
2018-05-15T00:34:24.653Z,0
2018-05-15T00:35:33.527Z,0
2018-05-15T00:36:42.390Z,0
2018-05-15T00:37:52.093Z,0
2018-05-15T00:39:00.959Z,0
2018-05-15T00:40:09.826Z,0
2018-05-15T00:41:18.965Z,0
2018-05-15T00:42:27.827Z,0
2018-05-15T00:43:36.686Z,0
2018-05-15T00:44:45.552Z,0
2018-05-15T00:45:55.396Z,0
2018-05-15T00:47:04.259Z,0
2018-05-15T00:48:13.120Z,0
2018-05-15T00:49:21.978Z,0
2018-05-15T00:50:30.840Z,0
2018-05-15T00:51:39.976Z,0
2018-05-15T00:52:49.114Z,0
2018-05-15T00:53:57.980Z,0
2018-05-15T00:55:07.117Z,0
2018-05-15T00:56:16.253Z,0
2018-05-15T00:57:25.463Z,0
2018-05-15T00:58:34.327Z,0
2018-05-15T00:59:43.465Z,0
2018-05-15T01:00:52.606Z,0
2018-05-15T01:02:01.746Z,0
2018-05-15T01:03:10.964Z,0
2018-05-15T01:04:20.105Z,0
2018-05-15T01:05:28.967Z,0
2018-05-15T01:06:37.827Z,0
2018-05-15T01:07:46.687Z,0
2018-05-15T01:08:55.599Z,0
2018-05-15T01:10:04.463Z,0
2018-05-15T01:11:13.327Z,0
2018-05-15T01:12:22.191Z,0
2018-05-15T01:13:31.050Z,0
2018-05-15T01:14:39.914Z,0
2018-05-15T01:15:48.774Z,0
2018-05-15T01:16:57.636Z,0
2018-05-15T01:18:06.498Z,0
2018-05-15T01:19:15.362Z,0
2018-05-15T01:20:24.324Z,0
2018-05-15T01:21:33.185Z,0
2018-05-15T01:22:42.331Z,0
2018-05-15T01:23:51.469Z,0
2018-05-15T01:25:00.329Z,0
2018-05-15T01:26:09.192Z,0
2018-05-15T01:27:18.054Z,0
2018-05-15T01:28:26.916Z,0
2018-05-15T01:29:35.782Z,0
2018-05-15T01:30:44.642Z,0
2018-05-15T01:31:53.757Z,0
2018-05-15T01:33:02.619Z,0
2018-05-15T01:34:11.477Z,0
2018-05-15T01:35:20.338Z,0
2018-05-15T01:36:29.198Z,0
2018-05-15T01:37:38.060Z,0
2018-05-15T01:38:46.916Z,0
2018-05-15T01:39:55.803Z,0
2018-05-15T01:41:04.667Z,0
2018-05-15T01:42:13.533Z,0
2018-05-15T01:43:22.390Z,0
2018-05-15T01:44:31.530Z,0
2018-05-15T01:45:40.678Z,0
2018-05-15T01:46:49.540Z,0
2018-05-15T01:47:58.400Z,0
2018-05-15T01:49:07.514Z,0
2018-05-15T01:50:16.679Z,0
2018-05-15T01:51:25.542Z,0
2018-05-15T01:52:34.409Z,0
2018-05-15T01:53:43.272Z,0
2018-05-15T01:54:52.129Z,0
2018-05-15T01:56:00.992Z,0
2018-05-15T01:57:09.853Z,0
2018-05-15T01:58:18.710Z,0
2018-05-15T01:59:27.925Z,0
2018-05-15T02:00:36.939Z,0
2018-05-15T02:01:45.800Z,0
2018-05-15T02:02:54.938Z,0
2018-05-15T02:04:04.078Z,0
2018-05-15T02:05:13.223Z,0
2018-05-15T02:06:22.233Z,0
2018-05-15T02:07:31.374Z,0
2018-05-15T02:08:40.234Z,0
2018-05-15T02:09:49.096Z,0
2018-05-15T02:10:57.973Z,0
2018-05-15T02:12:06.931Z,0
2018-05-15T02:13:15.792Z,0
2018-05-15T02:14:24.653Z,0
2018-05-15T02:15:33.792Z,0
2018-05-15T02:16:42.652Z,0
2018-05-15T02:17:51.840Z,0
2018-05-15T02:19:00.705Z,0
2018-05-15T02:20:09.848Z,0
2018-05-15T02:21:18.708Z,0
2018-05-15T02:22:27.569Z,0
2018-05-15T02:23:36.585Z,0
2018-05-15T02:24:45.722Z,0
2018-05-15T02:25:54.583Z,0
2018-05-15T02:27:03.446Z,0
2018-05-15T02:28:12.587Z,0
2018-05-15T02:29:21.600Z,0
2018-05-15T02:30:30.953Z,0
2018-05-15T02:31:40.379Z,0
2018-05-15T02:32:49.800Z,0
2018-05-15T02:33:59.218Z,0
2018-05-15T02:35:08.815Z,0
2018-05-15T02:36:17.666Z,0
2018-05-15T02:37:26.533Z,0
2018-05-15T02:38:35.966Z,0
2018-05-15T02:39:45.385Z,0
2018-05-15T02:40:54.981Z,0
2018-05-15T02:42:03.841Z,0
2018-05-15T02:43:13.397Z,0
2018-05-15T02:44:22.265Z,0
2018-05-15T02:45:31.412Z,0
2018-05-15T02:46:41.213Z,0
2018-05-15T02:47:50.353Z,0
2018-05-15T02:48:59.498Z,0
2018-05-15T02:50:08.649Z,0
2018-05-15T02:51:17.508Z,4
2018-05-15T02:52:26.474Z,4
2018-05-15T02:53:35.900Z,0
2018-05-15T02:54:45.039Z,0
2018-05-15T02:55:53.907Z,4
2018-05-15T02:57:02.766Z,4
2018-05-15T02:58:11.984Z,4
2018-05-15T02:59:21.121Z,4
2018-05-15T03:00:29.983Z,4
2018-05-15T03:01:39.133Z,8
2018-05-15T03:02:48.560Z,8
2018-05-15T03:03:57.781Z,8
2018-05-15T03:05:06.644Z,8
2018-05-15T03:06:15.826Z,8
2018-05-15T03:07:24.945Z,12
2018-05-15T03:08:33.808Z,12
2018-05-15T03:09:43.121Z,16
2018-05-15T03:10:51.909Z,20
2018-05-15T03:12:01.327Z,24
2018-05-15T03:13:10.469Z,24
2018-05-15T03:14:19.331Z,28
2018-05-15T03:15:28.345Z,36
2018-05-15T03:16:37.487Z,40
2018-05-15T03:17:46.622Z,44
2018-05-15T03:18:55.489Z,48
2018-05-15T03:20:04.900Z,56
2018-05-15T03:21:13.814Z,60
2018-05-15T03:22:22.675Z,68
2018-05-15T03:23:31.542Z,80
2018-05-15T03:24:40.680Z,84
2018-05-15T03:25:49.540Z,96
2018-05-15T03:26:58.451Z,104
2018-05-15T03:28:07.312Z,112
2018-05-15T03:29:16.172Z,120
2018-05-15T03:30:25.043Z,136
2018-05-15T03:31:34.190Z,144
2018-05-15T03:32:43.404Z,160
2018-05-15T03:33:52.824Z,172
2018-05-15T03:35:01.683Z,188
2018-05-15T03:36:10.543Z,200
2018-05-15T03:37:19.402Z,212
2018-05-15T03:38:28.558Z,228
2018-05-15T03:39:37.420Z,240
2018-05-15T03:40:46.280Z,256
2018-05-15T03:41:55.140Z,276
2018-05-15T03:43:04.003Z,292
2018-05-15T03:44:13.013Z,308
2018-05-15T03:45:21.873Z,324
2018-05-15T03:46:30.732Z,344
2018-05-15T03:47:39.869Z,360
2018-05-15T03:48:48.832Z,376
2018-05-15T03:49:57.973Z,396
2018-05-15T03:51:06.836Z,416
2018-05-15T03:52:15.972Z,432
2018-05-15T03:53:25.113Z,448
2018-05-15T03:54:33.974Z,468
2018-05-15T03:55:43.111Z,484
2018-05-15T03:56:52.248Z,504
2018-05-15T03:58:01.104Z,520
2018-05-15T03:59:09.967Z,544
2018-05-15T04:00:18.826Z,560
2018-05-15T04:01:28.042Z,576
2018-05-15T04:02:37.462Z,596
2018-05-15T04:03:46.364Z,612
2018-05-15T04:04:55.468Z,632
2018-05-15T04:06:04.334Z,652
2018-05-15T04:07:13.191Z,668
2018-05-15T04:08:22.323Z,688
2018-05-15T04:09:31.185Z,704
2018-05-15T04:10:40.044Z,724
2018-05-15T04:11:48.904Z,740
2018-05-15T04:12:58.138Z,756
2018-05-15T04:14:06.999Z,772
2018-05-15T04:15:15.864Z,788
2018-05-15T04:16:25.009Z,808
2018-05-15T04:17:33.869Z,824
2018-05-15T04:18:42.880Z,840
2018-05-15T04:19:51.740Z,856
2018-05-15T04:21:00.601Z,868
2018-05-15T04:22:09.741Z,888
2018-05-15T04:23:18.600Z,904
2018-05-15T04:24:27.457Z,916
2018-05-15T04:25:36.600Z,932
2018-05-15T04:26:45.461Z,944
2018-05-15T04:27:54.603Z,960
2018-05-15T04:29:03.462Z,972
2018-05-15T04:30:12.323Z,988
2018-05-15T04:31:21.184Z,1004
2018-05-15T04:32:30.336Z,1020
2018-05-15T04:33:39.471Z,1028
2018-05-15T04:34:48.332Z,1040
2018-05-15T04:35:57.471Z,1052
2018-05-15T04:37:06.612Z,1068
2018-05-15T04:38:15.474Z,1076
2018-05-15T04:39:24.616Z,1088
2018-05-15T04:40:33.752Z,1100
2018-05-15T04:41:42.666Z,1112
2018-05-15T04:42:51.796Z,1128
2018-05-15T04:44:01.413Z,1140
2018-05-15T04:45:10.676Z,1152
2018-05-15T04:46:19.792Z,1160
2018-05-15T04:47:29.004Z,1172
2018-05-15T04:48:37.861Z,1184
2018-05-15T04:49:46.722Z,1192
2018-05-15T04:50:55.586Z,1204
2018-05-15T04:52:08.857Z,1212
2018-05-15T04:53:19.335Z,1224
2018-05-15T04:54:28.468Z,1236
2018-05-15T04:55:38.050Z,1244
2018-05-15T04:56:47.224Z,1252
2018-05-15T04:57:56.086Z,1264
2018-05-15T04:59:05.294Z,1276
2018-05-15T05:00:14.156Z,1284
2018-05-15T05:01:23.575Z,1292
2018-05-15T05:02:32.713Z,1308
2018-05-15T05:03:42.124Z,1312
2018-05-15T05:04:51.434Z,1324
2018-05-15T05:06:00.295Z,1332
2018-05-15T05:07:09.156Z,1336
2018-05-15T05:08:18.014Z,1352
2018-05-15T05:09:26.876Z,1356
2018-05-15T05:10:35.985Z,1368
2018-05-15T05:11:44.916Z,1380
2018-05-15T05:12:53.707Z,1388
2018-05-15T05:14:02.853Z,1396
2018-05-15T05:15:11.720Z,1404
2018-05-15T05:16:20.577Z,1416
2018-05-15T05:17:29.719Z,1420
2018-05-15T05:18:38.581Z,1432
2018-05-15T05:19:47.993Z,1436
2018-05-15T05:20:56.886Z,1444
2018-05-15T05:22:05.814Z,1452
2018-05-15T05:23:14.675Z,1460
2018-05-15T05:24:24.092Z,1464
2018-05-15T05:25:32.952Z,1476
2018-05-15T05:26:41.812Z,1484
2018-05-15T05:27:51.036Z,1492
2018-05-15T05:29:00.180Z,1492
2018-05-15T05:30:09.330Z,1500
2018-05-15T05:31:18.191Z,1504
2018-05-15T05:32:27.056Z,1512
2018-05-15T05:33:36.293Z,1516
2018-05-15T05:34:45.152Z,1528
2018-05-15T05:35:54.064Z,1528
2018-05-15T05:37:02.930Z,1532
2018-05-15T05:38:12.069Z,1544
2018-05-15T05:39:21.079Z,1552
2018-05-15T05:40:30.222Z,1560
2018-05-15T05:41:39.368Z,1564
2018-05-15T05:42:48.227Z,1568
2018-05-15T05:43:57.373Z,1580
2018-05-15T05:45:06.585Z,1584
2018-05-15T05:46:15.734Z,1584
2018-05-15T05:47:24.591Z,1596
2018-05-15T05:48:33.557Z,1604
2018-05-15T05:49:42.417Z,1604
2018-05-15T05:50:51.325Z,1612
2018-05-15T05:52:00.844Z,1620
2018-05-15T05:53:09.617Z,1628
2018-05-15T05:54:18.476Z,1636
2018-05-15T05:55:27.341Z,1632
2018-05-15T05:56:36.226Z,1640
2018-05-15T05:57:45.087Z,1644
2018-05-15T05:58:54.228Z,1648
2018-05-15T06:00:03.752Z,1660
2018-05-15T06:01:12.615Z,1660
2018-05-15T06:02:21.602Z,1664
2018-05-15T06:03:30.741Z,1668
2018-05-15T06:04:39.926Z,1676
2018-05-15T06:05:48.791Z,1680
2018-05-15T06:06:57.931Z,1684
2018-05-15T06:08:07.226Z,1684
2018-05-15T06:09:16.094Z,1688
2018-05-15T06:10:25.235Z,1692
2018-05-15T06:11:34.097Z,1700
2018-05-15T06:12:43.234Z,1704
2018-05-15T06:13:52.097Z,1704
2018-05-15T06:15:00.958Z,1708
2018-05-15T06:16:10.102Z,1712
2018-05-15T06:17:18.964Z,1720
2018-05-15T06:18:27.825Z,1720
2018-05-15T06:19:37.315Z,1720
2018-05-15T06:20:46.596Z,1728
2018-05-15T06:21:56.181Z,1724
2018-05-15T06:23:05.045Z,1724
2018-05-15T06:24:13.909Z,1724
2018-05-15T06:25:23.101Z,1732
2018-05-15T06:26:31.968Z,1736
2018-05-15T06:27:40.829Z,1744
2018-05-15T06:28:49.741Z,1748
2018-05-15T06:29:58.601Z,1760
2018-05-15T06:31:07.899Z,1768
2018-05-15T06:32:16.810Z,1776
2018-05-15T06:33:25.955Z,1776
2018-05-15T06:34:34.823Z,1784
2018-05-15T06:35:43.687Z,1780
2018-05-15T06:36:52.543Z,1788
2018-05-15T06:38:01.409Z,1788
2018-05-15T06:39:10.270Z,1796
2018-05-15T06:40:19.134Z,1800
2018-05-15T06:41:27.991Z,1808
2018-05-15T06:42:37.186Z,1816
2018-05-15T06:43:46.349Z,1828
2018-05-15T06:44:55.187Z,1848
2018-05-15T06:46:04.342Z,1848
2018-05-15T06:47:13.203Z,1852
2018-05-15T06:48:22.414Z,1848
2018-05-15T06:49:31.274Z,1856
2018-05-15T06:50:40.417Z,1856
2018-05-15T06:51:49.549Z,1868
2018-05-15T06:52:58.414Z,1872
2018-05-15T06:54:07.708Z,1884
2018-05-15T06:55:16.849Z,1888
2018-05-15T06:56:25.710Z,1876
2018-05-15T06:57:34.850Z,1872
2018-05-15T06:58:43.711Z,1872
2018-05-15T06:59:52.622Z,1884
2018-05-15T07:01:01.486Z,1900
2018-05-15T07:02:10.348Z,1912
2018-05-15T07:03:19.492Z,1924
2018-05-15T07:04:28.353Z,1928
2018-05-15T07:05:37.266Z,1924
2018-05-15T07:06:46.129Z,1928
2018-05-15T07:07:54.991Z,1936
2018-05-15T07:09:03.854Z,1940
2018-05-15T07:10:12.717Z,1944
2018-05-15T07:11:21.729Z,1948
2018-05-15T07:12:30.868Z,1948
2018-05-15T07:13:40.009Z,1952
2018-05-15T07:14:49.152Z,1956
2018-05-15T07:15:58.013Z,1956
2018-05-15T07:17:07.335Z,1960
2018-05-15T07:18:16.195Z,1964
2018-05-15T07:19:25.434Z,1972
2018-05-15T07:20:34.293Z,1976
2018-05-15T07:21:43.434Z,1984
2018-05-15T07:22:52.626Z,1992
2018-05-15T07:24:01.489Z,2000
2018-05-15T07:25:10.357Z,2012
2018-05-15T07:26:19.497Z,2016
2018-05-15T07:27:28.461Z,2028
2018-05-15T07:28:37.611Z,2036
2018-05-15T07:29:46.473Z,2040
2018-05-15T07:30:55.344Z,2040
2018-05-15T07:32:04.208Z,2044
2018-05-15T07:33:13.159Z,2044
2018-05-15T07:34:22.329Z,2040
2018-05-15T07:35:31.147Z,2048
2018-05-15T07:36:40.291Z,2056
2018-05-15T07:37:49.154Z,2072
2018-05-15T07:38:58.015Z,2084
2018-05-15T07:40:06.981Z,2088
2018-05-15T07:41:15.842Z,2092
2018-05-15T07:42:24.703Z,2104
2018-05-15T07:43:33.851Z,2104
2018-05-15T07:44:42.716Z,2120
2018-05-15T07:45:51.628Z,2136
2018-05-15T07:47:00.495Z,2144
2018-05-15T07:48:09.774Z,2148
2018-05-15T07:49:18.854Z,2148
2018-05-15T07:50:27.717Z,2152
2018-05-15T07:51:36.862Z,2148
2018-05-15T07:52:45.733Z,2164
2018-05-15T07:53:54.592Z,2140
2018-05-15T07:55:03.452Z,2164
2018-05-15T07:56:12.316Z,2172
2018-05-15T07:57:21.507Z,2168
2018-05-15T07:58:30.370Z,2192
2018-05-15T07:59:39.513Z,2196
2018-05-15T08:00:48.658Z,2216
2018-05-15T08:01:57.518Z,2220
2018-05-15T08:03:07.400Z,2216
2018-05-15T08:04:16.277Z,2248
2018-05-15T08:05:25.760Z,2288
2018-05-15T08:06:34.623Z,2324
2018-05-15T08:07:43.487Z,2284
2018-05-15T08:08:52.499Z,2328
2018-05-15T08:10:01.361Z,2284
2018-05-15T08:11:10.236Z,2332
2018-05-15T08:12:19.380Z,2300
2018-05-15T08:13:28.807Z,2312
2018-05-15T08:14:37.678Z,2400
2018-05-15T08:15:46.546Z,2468
2018-05-15T08:16:55.412Z,2500
2018-05-15T08:18:04.274Z,2448
2018-05-15T08:19:13.139Z,2400
2018-05-15T08:20:22.050Z,2476
2018-05-15T08:21:30.915Z,2572
2018-05-15T08:22:40.159Z,2688
2018-05-15T08:23:49.579Z,2804
2018-05-15T08:24:58.725Z,2888
2018-05-15T08:26:07.843Z,3044
2018-05-15T08:27:17.264Z,3036
2018-05-15T08:28:26.403Z,3116
2018-05-15T08:29:35.274Z,3188
2018-05-15T08:30:44.169Z,3328
2018-05-15T08:31:53.789Z,3556
2018-05-15T08:33:02.653Z,3624
2018-05-15T08:34:11.801Z,3596
2018-05-15T08:35:20.667Z,3556
2018-05-15T08:36:29.529Z,3468
2018-05-15T08:37:38.906Z,3348
2018-05-15T08:38:48.422Z,3216
2018-05-15T08:39:57.285Z,3108
2018-05-15T08:41:06.428Z,3004
2018-05-15T08:42:15.291Z,2924
2018-05-15T08:43:24.409Z,2892
2018-05-15T08:44:33.550Z,2880
2018-05-15T08:45:42.420Z,2864
2018-05-15T08:46:51.280Z,2880
2018-05-15T08:48:00.143Z,2892
2018-05-15T08:49:09.107Z,2916
2018-05-15T08:50:17.972Z,2928
2018-05-15T08:51:26.885Z,2936
2018-05-15T08:52:35.705Z,2948
2018-05-15T08:53:44.562Z,2956
2018-05-15T08:54:53.764Z,2964
2018-05-15T08:56:02.905Z,2964
2018-05-15T08:57:11.770Z,2916
2018-05-15T08:58:20.633Z,2880
2018-05-15T08:59:29.496Z,2872
2018-05-15T09:00:38.411Z,2860
2018-05-15T09:01:47.274Z,2860
2018-05-15T09:02:56.139Z,2884
2018-05-15T09:04:05.002Z,2916
2018-05-15T09:05:14.146Z,2940
2018-05-15T09:06:23.735Z,2940
2018-05-15T09:07:32.880Z,2932
2018-05-15T09:08:41.743Z,2944
2018-05-15T09:09:50.660Z,2964
2018-05-15T09:10:59.524Z,2968
2018-05-15T09:12:08.736Z,2988
2018-05-15T09:13:17.602Z,2984
2018-05-15T09:14:26.468Z,3000
2018-05-15T09:15:35.885Z,3044
2018-05-15T09:16:45.035Z,3072
2018-05-15T09:17:54.000Z,3080
2018-05-15T09:19:02.869Z,3084
2018-05-15T09:20:11.731Z,3120
2018-05-15T09:21:20.919Z,3184
2018-05-15T09:22:29.789Z,3196
2018-05-15T09:23:38.982Z,3200
2018-05-15T09:24:48.124Z,3208
2018-05-15T09:25:56.990Z,3212
2018-05-15T09:27:06.229Z,3232
2018-05-15T09:28:15.093Z,3276
2018-05-15T09:29:24.149Z,3284
2018-05-15T09:30:32.928Z,3292
2018-05-15T09:31:42.068Z,3312
2018-05-15T09:32:50.935Z,3312
2018-05-15T09:33:59.799Z,3300
2018-05-15T09:35:09.680Z,3280
2018-05-15T09:36:19.113Z,3292
2018-05-15T09:37:28.266Z,3280
2018-05-15T09:38:37.126Z,3292
2018-05-15T09:39:45.989Z,3296
2018-05-15T09:40:54.904Z,3284
2018-05-15T09:42:04.059Z,3300
2018-05-15T09:43:13.206Z,3332
2018-05-15T09:44:22.344Z,3364
2018-05-15T09:45:31.212Z,3380
2018-05-15T09:46:40.280Z,3420
2018-05-15T09:47:49.146Z,3468
2018-05-15T09:48:58.015Z,3460
2018-05-15T09:50:07.163Z,3476
2018-05-15T09:51:16.026Z,3516
2018-05-15T09:52:25.152Z,3576
2018-05-15T09:53:34.190Z,3620
2018-05-15T09:54:43.335Z,3656
2018-05-15T09:55:52.202Z,3668
2018-05-15T09:57:01.068Z,3656
2018-05-15T09:58:10.083Z,3648
2018-05-15T09:59:19.227Z,3628
2018-05-15T10:00:28.090Z,3576
2018-05-15T10:01:37.245Z,3548
2018-05-15T10:02:46.673Z,3596
2018-05-15T10:03:55.925Z,3688
2018-05-15T10:05:04.789Z,3740
2018-05-15T10:06:13.654Z,3760
2018-05-15T10:07:22.519Z,3800
2018-05-15T10:08:31.385Z,3872
2018-05-15T10:09:40.300Z,3852
2018-05-15T10:10:49.167Z,3852
2018-05-15T10:11:58.033Z,3888
2018-05-15T10:13:06.899Z,3916
2018-05-15T10:14:16.534Z,4004
2018-05-15T10:15:25.950Z,4040
2018-05-15T10:16:34.815Z,4204
2018-05-15T10:17:43.680Z,4308
2018-05-15T10:18:52.547Z,4348
2018-05-15T10:20:02.163Z,4296
2018-05-15T10:21:11.478Z,4364
2018-05-15T10:22:20.337Z,4364
2018-05-15T10:23:29.479Z,4308
2018-05-15T10:24:38.345Z,4296
2018-05-15T10:25:47.500Z,4348
2018-05-15T10:26:56.374Z,4484
2018-05-15T10:28:05.229Z,4556
2018-05-15T10:29:14.098Z,4584
2018-05-15T10:30:22.961Z,4656
2018-05-15T10:31:31.832Z,4784
2018-05-15T10:32:40.943Z,4872
2018-05-15T10:33:49.810Z,5012
2018-05-15T10:34:58.674Z,5384
2018-05-15T10:36:07.820Z,6052
2018-05-15T10:37:17.002Z,6228
2018-05-15T10:38:26.154Z,6104
2018-05-15T10:39:35.021Z,5908
2018-05-15T10:40:43.890Z,5756
2018-05-15T10:41:53.036Z,5764
2018-05-15T10:43:01.904Z,5836
2018-05-15T10:44:10.770Z,5840
2018-05-15T10:45:19.644Z,5892
2018-05-15T10:46:28.785Z,5884
2018-05-15T10:47:37.652Z,5980
2018-05-15T10:48:46.794Z,6032
2018-05-15T10:49:56.005Z,6064
2018-05-15T10:51:04.874Z,6316
2018-05-15T10:52:13.734Z,6568
2018-05-15T10:53:22.601Z,6832
2018-05-15T10:54:31.467Z,7052
2018-05-15T10:55:40.484Z,6904
2018-05-15T10:56:49.353Z,7352
2018-05-15T10:57:58.221Z,7852
2018-05-15T10:59:07.092Z,7960
2018-05-15T11:00:15.959Z,7812
2018-05-15T11:01:24.877Z,7372
2018-05-15T11:02:33.745Z,6680
2018-05-15T11:03:42.611Z,6640
2018-05-15T11:04:52.058Z,6832
2018-05-15T11:06:00.925Z,7120
2018-05-15T11:07:09.792Z,7788
2018-05-15T11:08:18.662Z,7620
2018-05-15T11:09:27.813Z,8184
2018-05-15T11:10:36.956Z,8716
2018-05-15T11:11:45.822Z,8516
2018-05-15T11:12:55.568Z,8176
2018-05-15T11:14:04.626Z,7736
2018-05-15T11:15:13.808Z,7132
2018-05-15T11:16:22.676Z,7132
2018-05-15T11:17:31.548Z,7412
2018-05-15T11:18:40.943Z,7956
2018-05-15T11:19:50.373Z,8036
2018-05-15T11:20:59.241Z,7780
2018-05-15T11:22:08.111Z,7628
2018-05-15T11:23:16.980Z,7700
2018-05-15T11:24:26.000Z,7964
2018-05-15T11:25:34.869Z,7960
2018-05-15T11:26:43.739Z,8068
2018-05-15T11:27:52.605Z,8308
2018-05-15T11:29:01.473Z,8120
2018-05-15T11:30:10.440Z,8156
2018-05-15T11:31:19.310Z,7936
2018-05-15T11:32:28.457Z,8496
2018-05-15T11:33:37.324Z,8592
2018-05-15T11:34:46.196Z,8304
2018-05-15T11:35:55.575Z,9116
2018-05-15T11:37:04.820Z,9664
2018-05-15T11:38:13.685Z,9276
2018-05-15T11:39:22.553Z,9252
2018-05-15T11:40:31.700Z,9500
2018-05-15T11:41:41.517Z,10252
2018-05-15T11:42:50.325Z,10892
2018-05-15T11:43:59.195Z,11096
2018-05-15T11:45:08.064Z,10952
2018-05-15T11:46:16.932Z,9664
2018-05-15T11:47:26.478Z,9168
2018-05-15T11:48:35.671Z,11092
2018-05-15T11:49:47.034Z,11524
2018-05-15T11:50:58.747Z,11812
2018-05-15T11:52:08.307Z,14304
2018-05-15T11:53:18.763Z,50656
2018-05-15T11:54:27.322Z,57472
2018-05-15T11:55:42.710Z,19040
2018-05-15T11:56:52.093Z,65856
2018-05-15T11:58:01.055Z,64128
2018-05-15T11:59:09.981Z,62976
2018-05-15T12:00:18.850Z,62976
2018-05-15T12:01:27.721Z,65536
2018-05-15T12:02:36.677Z,66880
2018-05-15T12:03:45.817Z,65408
2018-05-15T12:04:55.126Z,64448
2018-05-15T12:06:04.276Z,62400
2018-05-15T12:07:13.155Z,60896
2018-05-15T12:08:22.560Z,64480
2018-05-15T12:09:31.870Z,66336
2018-05-15T12:10:41.085Z,68544
2018-05-15T12:11:50.330Z,64768
2018-05-15T12:12:59.196Z,64256
2018-05-15T12:14:08.430Z,64064
2018-05-15T12:15:17.331Z,63808
2018-05-15T12:16:26.314Z,70240
2018-05-15T12:17:35.201Z,68448
2018-05-15T12:18:44.086Z,68512
2018-05-15T12:19:52.969Z,61056
2018-05-15T12:21:02.797Z,61568
2018-05-15T12:22:12.055Z,60832
2018-05-15T12:23:21.205Z,57888
2018-05-15T12:24:30.133Z,60736
2018-05-15T12:25:38.955Z,30080
2018-05-15T12:26:47.828Z,65696
2018-05-15T12:27:57.203Z,63872
2018-05-15T12:29:06.021Z,19744
2018-05-15T12:30:14.897Z,13092
2018-05-15T12:31:23.775Z,12140
2018-05-15T12:32:32.649Z,12440
2018-05-15T12:33:41.580Z,12064
2018-05-15T12:34:50.734Z,25408
2018-05-15T12:36:00.007Z,8256
2018-05-15T12:37:08.876Z,7228
2018-05-15T12:38:17.753Z,6980
2018-05-15T12:39:26.676Z,6884
2018-05-15T12:40:35.826Z,7328
2018-05-15T12:41:45.743Z,7512
2018-05-15T12:42:54.816Z,7432
2018-05-15T12:44:03.963Z,6848
2018-05-15T12:45:12.893Z,6472
2018-05-15T12:46:21.772Z,6612
2018-05-15T12:47:30.648Z,7016
2018-05-15T12:48:39.589Z,7472
2018-05-15T12:49:48.391Z,8352
2018-05-15T12:50:57.419Z,10736
2018-05-15T12:52:06.289Z,41504
2018-05-15T12:53:15.434Z,38304
2018-05-15T12:54:24.303Z,32288
2018-05-15T12:55:33.453Z,42208
2018-05-15T12:56:42.572Z,48064
2018-05-15T12:57:51.442Z,52640
2018-05-15T12:59:00.313Z,53504
2018-05-15T13:00:09.184Z,55968
2018-05-15T13:01:18.057Z,54496
2018-05-15T13:02:27.036Z,57824
2018-05-15T13:03:35.902Z,59008
2018-05-15T13:04:44.779Z,57536
2018-05-15T13:05:53.648Z,58176
2018-05-15T13:07:02.525Z,16864
2018-05-15T13:08:11.649Z,13304
2018-05-15T13:09:20.545Z,12104
2018-05-15T13:10:29.697Z,11884
2018-05-15T13:11:38.992Z,11916
2018-05-15T13:12:47.862Z,12288
2018-05-15T13:13:56.845Z,13232
2018-05-15T13:15:05.998Z,14688
2018-05-15T13:16:15.158Z,60736
2018-05-15T13:17:24.026Z,16416
2018-05-15T13:18:33.322Z,39712
2018-05-15T13:19:42.619Z,17632
2018-05-15T13:20:51.493Z,68320
2018-05-15T13:22:00.368Z,61472
2018-05-15T13:23:09.521Z,16572
2018-05-15T13:24:18.455Z,77728
2018-05-15T13:25:27.665Z,34624
2018-05-15T13:26:36.536Z,50944
2018-05-15T13:27:45.689Z,77632
2018-05-15T13:28:54.844Z,72608
2018-05-15T13:30:04.000Z,71648
2018-05-15T13:31:12.925Z,11692
2018-05-15T13:32:21.800Z,8928
2018-05-15T13:33:30.952Z,17696
2018-05-15T13:34:39.827Z,70816
2018-05-15T13:35:49.308Z,68640
2018-05-15T13:36:58.176Z,64608
2018-05-15T13:38:07.055Z,69440
2018-05-15T13:39:15.930Z,71136
2018-05-15T13:40:24.806Z,71072
2018-05-15T13:41:33.959Z,73600
2018-05-15T13:42:43.035Z,73632
2018-05-15T13:43:51.913Z,70816
2018-05-15T13:45:01.069Z,65696
2018-05-15T13:46:10.228Z,18944
2018-05-15T13:47:19.110Z,40000
2018-05-15T13:48:27.986Z,19392
2018-05-15T13:49:37.159Z,12452
2018-05-15T13:50:46.032Z,11048
2018-05-15T13:51:54.910Z,8704
2018-05-15T13:53:03.786Z,7564
2018-05-15T13:54:12.954Z,7176
2018-05-15T13:55:21.828Z,7032
2018-05-15T13:56:30.985Z,6752
2018-05-15T13:57:39.859Z,6680
2018-05-15T13:58:49.015Z,6732
2018-05-15T13:59:58.179Z,6864
2018-05-15T14:01:07.055Z,6852
2018-05-15T14:02:15.929Z,6548
2018-05-15T14:03:24.808Z,6364
2018-05-15T14:04:33.682Z,6272
2018-05-15T14:05:42.656Z,6152
2018-05-15T14:06:51.528Z,6052
2018-05-15T14:08:00.402Z,6032
2018-05-15T14:09:09.273Z,6040
2018-05-15T14:10:18.140Z,6088
2018-05-15T14:11:27.397Z,6104
2018-05-15T14:12:37.196Z,6200
2018-05-15T14:13:45.968Z,6288
2018-05-15T14:14:54.840Z,6184
2018-05-15T14:16:03.709Z,6264
2018-05-15T14:17:12.579Z,6760
2018-05-15T14:18:21.447Z,7364
2018-05-15T14:19:30.315Z,8204
2018-05-15T14:20:39.188Z,8892
2018-05-15T14:21:48.339Z,9620
2018-05-15T14:22:57.721Z,31616
2018-05-15T14:24:06.591Z,9480
2018-05-15T14:25:15.465Z,10240
2018-05-15T14:26:24.528Z,11276
2018-05-15T14:27:34.034Z,11884
2018-05-15T14:28:43.442Z,13428
2018-05-15T14:29:52.312Z,15508
2018-05-15T14:31:01.331Z,17920
2018-05-15T14:32:10.498Z,60192
2018-05-15T14:33:19.691Z,61152
2018-05-15T14:34:29.117Z,58944
2018-05-15T14:35:38.182Z,58336
2018-05-15T14:36:47.282Z,30400
2018-05-15T14:37:56.864Z,38912
2018-05-15T14:39:06.049Z,16736
2018-05-15T14:40:15.745Z,12840
2018-05-15T14:41:24.897Z,10352
2018-05-15T14:42:34.470Z,8604
2018-05-15T14:43:43.546Z,7636
2018-05-15T14:44:52.808Z,6872
2018-05-15T14:46:02.208Z,6196
2018-05-15T14:47:11.394Z,5684
2018-05-15T14:48:20.471Z,5372
2018-05-15T14:49:29.510Z,5120
2018-05-15T14:50:38.648Z,5080
2018-05-15T14:51:48.142Z,5128
2018-05-15T14:52:57.957Z,5248
2018-05-15T14:54:07.115Z,5392
2018-05-15T14:55:15.983Z,5664
2018-05-15T14:56:25.481Z,6088
2018-05-15T14:57:34.697Z,6660
2018-05-15T14:58:43.988Z,7520
2018-05-15T14:59:53.274Z,17600
2018-05-15T15:01:02.536Z,10072
2018-05-15T15:02:11.654Z,11160
2018-05-15T15:03:20.925Z,38432
2018-05-15T15:04:30.008Z,51712
2018-05-15T15:05:39.164Z,55488
2018-05-15T15:06:48.618Z,60320
2018-05-15T15:07:57.943Z,61376
2018-05-15T15:09:06.875Z,60320
2018-05-15T15:10:15.839Z,59392
2018-05-15T15:11:24.810Z,58976
2018-05-15T15:12:33.668Z,56736
2018-05-15T15:13:42.630Z,55616
2018-05-15T15:14:52.141Z,52768
2018-05-15T15:16:01.639Z,25952
2018-05-15T15:17:10.877Z,50624
2018-05-15T15:18:19.962Z,52640
2018-05-15T15:19:28.912Z,52000
2018-05-15T15:20:37.837Z,51424
2018-05-15T15:21:46.713Z,56640
2018-05-15T15:22:56.027Z,56096
2018-05-15T15:24:05.215Z,55904
2018-05-15T15:25:14.275Z,58496
2018-05-15T15:26:23.661Z,53184
2018-05-15T15:27:32.567Z,46816
2018-05-15T15:28:41.619Z,53568
2018-05-15T15:29:50.499Z,56384
2018-05-15T15:30:59.377Z,57472
2018-05-15T15:32:08.640Z,56480
2018-05-15T15:33:17.825Z,55168
2018-05-15T15:34:28.016Z,53760
2018-05-15T15:35:38.131Z,14532